createdAt,value
2018-01-15T00:01:19.966Z,17.27
2018-01-15T00:03:49.088Z,16.75
2018-01-15T00:06:18.214Z,19.02
2018-01-15T00:08:47.345Z,16.48
2018-01-15T00:11:15.692Z,17.30
2018-01-15T00:13:44.806Z,19.58
2018-01-15T00:16:13.882Z,15.52
2018-01-15T00:18:42.244Z,17.02
2018-01-15T00:21:10.558Z,14.98
2018-01-15T00:23:38.926Z,18.05
2018-01-15T00:26:07.219Z,16.62
2018-01-15T00:28:35.823Z,17.12
2018-01-15T00:31:04.140Z,16.85
2018-01-15T00:33:33.202Z,15.52
2018-01-15T00:36:01.542Z,17.60
2018-01-15T00:38:30.612Z,17.50
2018-01-15T00:40:58.954Z,19.25
2018-01-15T00:43:28.026Z,16.70
2018-01-15T00:45:56.525Z,17.12
2018-01-15T00:48:24.827Z,16.52
2018-01-15T00:50:53.902Z,18.80
2018-01-15T00:53:22.234Z,18.45
2018-01-15T00:55:51.344Z,17.48
2018-01-15T00:58:20.447Z,18.95
2018-01-15T01:00:49.535Z,17.37
2018-01-15T01:03:17.878Z,18.23
2018-01-15T01:05:46.182Z,19.45
2018-01-15T01:08:14.670Z,18.35
2018-01-15T01:10:42.966Z,17.92
2018-01-15T01:13:11.282Z,19.67
2018-01-15T01:15:39.675Z,19.10
2018-01-15T01:18:07.998Z,19.08
2018-01-15T01:20:37.114Z,20.45
2018-01-15T01:23:06.171Z,17.10
2018-01-15T01:25:34.510Z,17.25
2018-01-15T01:28:03.581Z,18.12
2018-01-15T01:30:31.928Z,19.55
2018-01-15T01:33:00.246Z,21.90
2018-01-15T01:35:28.578Z,17.52
2018-01-15T01:37:57.648Z,19.50
2018-01-15T01:40:25.987Z,20.88
2018-01-15T01:42:55.484Z,17.87
2018-01-15T01:45:24.564Z,19.05
2018-01-15T01:47:52.894Z,19.75
2018-01-15T01:50:21.970Z,17.70
2018-01-15T01:52:50.318Z,17.25
2018-01-15T01:55:18.652Z,18.08
2018-01-15T01:57:48.563Z,19.12
2018-01-15T02:00:16.859Z,19.17
2018-01-15T02:02:45.194Z,19.52
2018-01-15T02:05:14.270Z,17.65
2018-01-15T02:07:44.123Z,19.83
2018-01-15T02:10:13.199Z,19.52
2018-01-15T02:12:41.564Z,18.20
2018-01-15T02:15:10.049Z,21.30
2018-01-15T02:17:38.361Z,18.48
2018-01-15T02:20:06.659Z,21.20
2018-01-15T02:22:34.990Z,19.48
2018-01-15T02:25:03.325Z,17.90
2018-01-15T02:27:31.624Z,20.23
2018-01-15T02:29:59.958Z,19.83
2018-01-15T02:32:29.035Z,21.52
2018-01-15T02:34:57.331Z,18.83
2018-01-15T02:37:26.445Z,21.62
2018-01-15T02:39:55.505Z,20.10
2018-01-15T02:42:23.846Z,20.92
2018-01-15T02:44:52.931Z,21.35
2018-01-15T02:47:21.275Z,19.33
2018-01-15T02:49:49.574Z,19.37
2018-01-15T02:52:17.902Z,19.73
2018-01-15T02:54:46.214Z,21.48
2018-01-15T02:57:15.288Z,20.88
2018-01-15T02:59:43.823Z,21.15
2018-01-15T03:02:12.887Z,19.87
2018-01-15T03:04:41.182Z,20.30
2018-01-15T03:07:09.528Z,18.95
2018-01-15T03:09:37.866Z,19.83
2018-01-15T03:12:06.159Z,24.08
2018-01-15T03:14:35.982Z,21.15
2018-01-15T03:17:04.331Z,21.17
2018-01-15T03:19:32.631Z,21.67
2018-01-15T03:22:00.979Z,21.67
2018-01-15T03:24:30.060Z,18.02
2018-01-15T03:26:58.378Z,22.67
2018-01-15T03:29:27.447Z,22.35
2018-01-15T03:31:56.998Z,21.20
2018-01-15T03:34:26.082Z,23.55
2018-01-15T03:36:54.374Z,21.40
2018-01-15T03:39:24.223Z,21.20
2018-01-15T03:41:53.326Z,21.40
2018-01-15T03:44:22.402Z,21.45
2018-01-15T03:46:50.698Z,20.65
2018-01-15T03:49:19.026Z,21.37
2018-01-15T03:51:48.102Z,22.48
2018-01-15T03:54:16.471Z,22.17
2018-01-15T03:56:44.767Z,22.08
2018-01-15T03:59:13.127Z,21.20
2018-01-15T04:01:41.423Z,22.60
2018-01-15T04:04:09.762Z,19.90
2018-01-15T04:06:38.075Z,19.60
2018-01-15T04:09:07.191Z,20.15
2018-01-15T04:11:36.270Z,22.30
2018-01-15T04:14:05.368Z,22.92
2018-01-15T04:16:35.227Z,24.37
2018-01-15T04:19:04.435Z,22.55
2018-01-15T04:21:33.505Z,20.77
2018-01-15T04:26:24.986Z,21.02
2018-01-15T04:28:54.075Z,21.20
2018-01-15T04:31:23.924Z,19.52
2018-01-15T04:33:53.002Z,23.90
2018-01-15T04:36:21.371Z,22.55
2018-01-15T04:38:49.688Z,24.52
2018-01-15T04:41:18.019Z,23.35
2018-01-15T04:43:46.558Z,22.33
2018-01-15T04:46:14.858Z,23.08
2018-01-15T04:48:43.926Z,23.87
2018-01-15T04:51:12.258Z,22.87
2018-01-15T04:53:42.102Z,22.58
2018-01-15T04:56:11.170Z,21.92
2018-01-15T04:58:39.505Z,19.20
2018-01-15T05:01:08.674Z,22.45
2018-01-15T05:03:36.974Z,20.90
2018-01-15T05:06:05.286Z,24.10
2018-01-15T05:08:34.414Z,23.12
2018-01-15T05:11:03.710Z,20.75
2018-01-15T05:13:32.810Z,22.35
2018-01-15T05:16:01.924Z,22.95
2018-01-15T05:18:30.999Z,22.42
2018-01-15T05:20:59.559Z,21.45
2018-01-15T05:23:27.855Z,23.95
2018-01-15T05:25:56.167Z,25.50
2018-01-15T05:28:24.554Z,23.05
2018-01-15T05:30:52.856Z,23.52
2018-01-15T05:33:21.186Z,24.05
2018-01-15T05:35:50.255Z,22.98
2018-01-15T05:38:20.121Z,25.15
2018-01-15T05:43:26.080Z,26.90
2018-01-15T05:45:54.407Z,23.75
2018-01-15T05:48:23.711Z,26.35
2018-01-15T05:50:52.782Z,25.55
2018-01-15T05:53:21.083Z,25.83
2018-01-15T05:55:50.199Z,27.33
2018-01-15T05:58:18.503Z,26.17
2018-01-15T06:00:48.350Z,25.12
2018-01-15T06:03:17.414Z,25.30
2018-01-15T06:05:47.226Z,23.83
2018-01-15T06:08:15.586Z,24.58
2018-01-15T06:10:43.890Z,25.90
2018-01-15T06:13:12.245Z,26.67
2018-01-15T06:15:41.341Z,25.52
2018-01-15T06:18:10.426Z,27.48
2018-01-15T06:20:38.767Z,24.25
2018-01-15T06:23:07.122Z,25.90
2018-01-15T06:25:36.231Z,26.12
2018-01-15T06:28:05.344Z,24.50
2018-01-15T06:30:34.415Z,26.90
2018-01-15T06:33:02.783Z,23.67
2018-01-15T06:35:31.094Z,22.95
2018-01-15T06:37:59.401Z,24.48
2018-01-15T06:40:27.855Z,28.23
2018-01-15T06:42:56.163Z,23.80
2018-01-15T06:45:24.471Z,27.10
2018-01-15T06:47:52.810Z,25.23
2018-01-15T06:52:56.599Z,24.65
2018-01-15T06:55:24.904Z,25.17
2018-01-15T06:57:53.217Z,27.35
2018-01-15T07:00:22.368Z,23.30
2018-01-15T07:02:50.667Z,25.05
2018-01-15T07:05:18.975Z,26.42
2018-01-15T07:07:47.308Z,25.08
2018-01-15T07:10:16.468Z,24.12
2018-01-15T07:12:44.780Z,24.75
2018-01-15T07:15:13.905Z,25.27
2018-01-15T07:17:42.980Z,23.65
2018-01-15T07:20:11.401Z,26.00
2018-01-15T07:22:40.478Z,26.55
2018-01-15T07:25:08.868Z,23.38
2018-01-15T07:27:37.162Z,23.40
2018-01-15T07:30:06.983Z,26.50
2018-01-15T07:32:35.415Z,25.52
2018-01-15T07:35:04.486Z,25.12
2018-01-15T07:37:32.795Z,27.25
2018-01-15T07:40:01.907Z,25.80
2018-01-15T07:42:31.006Z,19.27
2018-01-15T07:45:00.084Z,23.67
2018-01-15T07:47:28.438Z,26.42
2018-01-15T07:49:56.747Z,23.12
2018-01-15T07:52:25.094Z,26.20
2018-01-15T07:54:54.172Z,24.30
2018-01-15T07:57:22.488Z,28.52
2018-01-15T07:59:51.665Z,24.90
2018-01-15T08:02:19.994Z,24.35
2018-01-15T08:04:49.122Z,24.67
2018-01-15T08:07:17.438Z,27.65
2018-01-15T08:09:45.738Z,24.70
2018-01-15T08:12:14.099Z,25.65
2018-01-15T08:14:42.406Z,24.77
2018-01-15T08:17:10.708Z,26.37
2018-01-15T08:19:39.278Z,25.10
2018-01-15T08:22:07.603Z,25.90
2018-01-15T08:24:35.915Z,27.42
2018-01-15T08:27:05.030Z,25.30
2018-01-15T08:29:34.100Z,24.30
2018-01-15T08:32:02.443Z,26.80
2018-01-15T08:34:30.780Z,27.30
2018-01-15T08:36:59.147Z,24.48
2018-01-15T08:39:27.530Z,25.95
2018-01-15T08:41:55.847Z,27.52
2018-01-15T08:44:24.283Z,26.67
2018-01-15T08:46:53.370Z,25.35
2018-01-15T08:49:23.226Z,26.23
2018-01-15T08:51:51.534Z,24.23
2018-01-15T08:54:19.848Z,27.27
2018-01-15T08:56:48.271Z,21.95
2018-01-15T08:59:17.353Z,24.70
2018-01-15T09:01:46.122Z,23.92
2018-01-15T09:04:14.423Z,23.98
2018-01-15T09:06:42.722Z,22.15
2018-01-15T09:09:11.506Z,23.33
2018-01-15T09:11:39.832Z,25.17
2018-01-15T09:14:08.167Z,21.23
2018-01-15T09:16:36.519Z,23.65
2018-01-15T09:19:04.866Z,27.35
2018-01-15T09:21:33.163Z,24.42
2018-01-15T09:24:01.540Z,21.52
2018-01-15T09:26:29.842Z,24.45
2018-01-15T09:28:58.198Z,23.98
2018-01-15T09:31:27.254Z,25.77
2018-01-15T09:33:55.564Z,24.20
2018-01-15T09:36:24.025Z,22.13
2018-01-15T09:38:52.310Z,22.85
2018-01-15T09:41:21.370Z,21.55
2018-01-15T09:43:50.524Z,23.30
2018-01-15T09:46:18.830Z,22.60
2018-01-15T09:51:23.675Z,23.50
2018-01-15T09:53:52.062Z,21.65
2018-01-15T09:56:20.363Z,20.50
2018-01-15T09:58:48.707Z,21.15
2018-01-15T10:01:17.779Z,24.20
2018-01-15T10:03:46.077Z,22.25
2018-01-15T10:06:14.491Z,21.70
2018-01-15T10:08:43.558Z,20.77
2018-01-15T10:11:11.930Z,21.23
2018-01-15T10:13:40.231Z,24.30
2018-01-15T10:16:08.718Z,20.08
2018-01-15T10:18:37.045Z,22.15
2018-01-15T10:21:05.343Z,21.33
2018-01-15T10:23:35.374Z,20.83
2018-01-15T10:26:03.606Z,22.20
2018-01-15T10:28:32.090Z,20.25
2018-01-15T10:31:01.164Z,21.02
2018-01-15T10:33:29.502Z,21.08
2018-01-15T10:35:57.850Z,19.08
2018-01-15T10:38:27.394Z,22.15
2018-01-15T10:40:56.462Z,18.45
2018-01-15T10:43:26.335Z,22.05
2018-01-15T10:45:54.636Z,20.12
2018-01-15T10:48:23.091Z,19.33
2018-01-15T10:50:52.158Z,19.10
2018-01-15T10:53:20.471Z,21.67
2018-01-15T10:55:48.894Z,20.50
2018-01-15T10:58:18.053Z,19.50
2018-01-15T11:00:51.249Z,20.10
2018-01-15T11:03:19.556Z,19.65
2018-01-15T11:05:47.975Z,19.12
2018-01-15T11:08:17.602Z,16.60
2018-01-15T11:10:46.676Z,18.40
2018-01-15T11:13:15.090Z,19.05
2018-01-15T11:15:43.382Z,20.33
2018-01-15T11:18:12.578Z,21.17
2018-01-15T11:20:40.867Z,16.92
2018-01-15T11:23:10.854Z,15.60
2018-01-15T11:25:39.170Z,18.08
2018-01-15T11:28:07.466Z,15.52
2018-01-15T11:30:35.803Z,13.38
2018-01-15T11:33:04.134Z,15.17
2018-01-15T11:35:32.445Z,16.23
2018-01-15T11:40:41.428Z,15.75
2018-01-15T11:43:11.221Z,13.90
2018-01-15T11:45:39.522Z,13.30
2018-01-15T11:48:07.908Z,15.68
2018-01-15T11:50:36.300Z,13.68
2018-01-15T11:53:04.594Z,13.65
2018-01-15T11:57:54.554Z,13.07
2018-01-15T12:00:23.619Z,13.90
2018-01-15T12:02:51.998Z,11.77
2018-01-15T12:05:20.394Z,13.40
2018-01-15T12:07:48.703Z,12.13
2018-01-15T12:10:17.115Z,11.60
2018-01-15T12:12:46.961Z,13.60
2018-01-15T12:15:16.017Z,12.80
2018-01-15T12:17:44.366Z,11.87
2018-01-15T12:20:12.670Z,12.48
2018-01-15T12:22:41.024Z,13.55
2018-01-15T12:25:10.092Z,12.40
2018-01-15T12:27:38.389Z,13.50
2018-01-15T12:30:06.762Z,12.50
2018-01-15T12:32:35.068Z,11.17
2018-01-15T12:35:03.424Z,10.80
2018-01-15T12:37:31.722Z,12.17
2018-01-15T12:40:00.031Z,11.73
2018-01-15T12:42:28.366Z,11.67
2018-01-15T12:44:57.433Z,10.10
2018-01-15T12:47:25.762Z,9.53
2018-01-15T12:49:54.840Z,8.97
2018-01-15T12:52:23.154Z,8.90
2018-01-15T12:54:52.258Z,7.90
2018-01-15T12:57:21.325Z,7.97
2018-01-15T12:59:49.611Z,8.50
2018-01-15T13:02:17.965Z,6.53
2018-01-15T13:07:34.690Z,7.60
2018-01-15T13:10:03.742Z,8.93
2018-01-15T13:12:32.190Z,7.07
2018-01-15T13:15:00.478Z,9.87
2018-01-15T13:17:29.694Z,8.20
2018-01-15T13:19:58.790Z,7.50
2018-01-15T13:22:27.071Z,8.43
2018-01-15T13:24:55.410Z,9.03
2018-01-15T13:27:23.762Z,7.67
2018-01-15T13:29:52.058Z,7.50
2018-01-15T13:32:21.205Z,7.60
2018-01-15T13:34:49.551Z,8.10
2018-01-15T13:37:18.671Z,6.93
2018-01-15T13:39:47.774Z,8.20
2018-01-15T13:42:17.567Z,9.30
2018-01-15T13:44:45.999Z,8.13
2018-01-15T13:47:15.069Z,8.87
2018-01-15T13:49:43.411Z,8.73
2018-01-15T13:52:12.526Z,8.17
2018-01-15T13:54:40.865Z,10.03
2018-01-15T13:57:09.207Z,9.10
2018-01-15T13:59:37.767Z,8.83
2018-01-15T14:02:06.050Z,9.70
2018-01-15T14:04:35.102Z,7.90
2018-01-15T14:07:03.802Z,8.60
2018-01-15T14:09:32.151Z,9.25
2018-01-15T14:12:01.952Z,9.57
2018-01-15T14:14:30.249Z,9.10
2018-01-15T14:16:58.581Z,8.43
2018-01-15T14:19:27.647Z,7.90
2018-01-15T14:21:55.967Z,7.60
2018-01-15T14:24:25.082Z,9.50
2018-01-15T14:26:54.144Z,9.47
2018-01-15T14:29:22.443Z,9.23
2018-01-15T14:34:18.606Z,8.50
2018-01-15T14:36:47.063Z,9.13
2018-01-15T14:39:15.356Z,10.40
2018-01-15T14:41:43.739Z,8.53
2018-01-15T14:44:12.092Z,10.05
2018-01-15T14:46:40.379Z,8.90
2018-01-15T14:49:09.474Z,10.20
2018-01-15T14:51:37.784Z,9.93
2018-01-15T14:54:06.907Z,10.07
2018-01-15T14:56:35.979Z,8.17
2018-01-15T14:59:04.262Z,9.27
2018-01-15T15:01:32.622Z,8.67
2018-01-15T15:04:00.928Z,9.90
2018-01-15T15:06:29.234Z,9.10
2018-01-15T15:08:57.584Z,9.57
2018-01-15T15:11:25.871Z,9.85
2018-01-15T15:13:54.288Z,8.63
2018-01-15T15:16:22.616Z,10.70
2018-01-15T15:18:51.726Z,11.30
2018-01-15T15:21:20.845Z,10.37
2018-01-15T15:23:49.898Z,9.63
2018-01-15T15:26:18.242Z,11.20
2018-01-15T15:28:47.323Z,9.60
2018-01-15T15:31:15.593Z,8.57
2018-01-15T15:33:43.954Z,11.65
2018-01-15T15:36:12.258Z,10.77
2018-01-15T15:38:40.590Z,10.50
2018-01-15T15:41:08.878Z,11.70
2018-01-15T15:43:37.951Z,11.68
2018-01-15T15:48:29.506Z,11.20
2018-01-15T15:50:57.802Z,11.85
2018-01-15T15:53:26.110Z,10.73
2018-01-15T15:55:54.454Z,11.02
2018-01-15T15:58:22.802Z,9.57
2018-01-15T16:00:51.868Z,11.40
2018-01-15T16:03:20.170Z,11.43
2018-01-15T16:05:48.612Z,9.70
2018-01-15T16:08:16.886Z,11.43
2018-01-15T16:10:45.960Z,9.90
2018-01-15T16:13:14.299Z,10.43
2018-01-15T16:15:43.351Z,10.67
2018-01-15T16:18:11.751Z,12.02
2018-01-15T16:20:40.006Z,10.20
2018-01-15T16:23:08.359Z,11.07
2018-01-15T16:25:37.436Z,12.25
2018-01-15T16:28:05.787Z,10.93
2018-01-15T16:30:34.082Z,12.37
2018-01-15T16:33:02.387Z,10.63
2018-01-15T16:35:30.967Z,10.68
2018-01-15T16:37:59.272Z,11.10
2018-01-15T16:40:27.606Z,11.05
2018-01-15T16:42:56.714Z,11.95
2018-01-15T16:45:25.800Z,10.13
2018-01-15T16:47:54.130Z,10.90
2018-01-15T16:50:26.174Z,11.33
2018-01-15T16:52:54.675Z,10.30
2018-01-15T16:55:22.978Z,11.10
2018-01-15T16:57:52.051Z,12.30
2018-01-15T17:00:20.387Z,9.95
2018-01-15T17:02:49.451Z,10.13
2018-01-15T17:05:17.758Z,11.73
2018-01-15T17:07:46.107Z,11.18
2018-01-15T17:10:14.407Z,12.13
2018-01-15T17:12:42.710Z,10.85
2018-01-15T17:15:11.065Z,12.60
2018-01-15T17:17:39.366Z,11.25
2018-01-15T17:20:07.687Z,11.60
2018-01-15T17:22:36.110Z,13.15
2018-01-15T17:25:05.178Z,10.95
2018-01-15T17:27:33.483Z,12.23
2018-01-15T17:30:01.845Z,11.10
2018-01-15T17:32:30.146Z,11.37
2018-01-15T17:34:58.502Z,9.20
2018-01-15T17:37:26.798Z,11.85
2018-01-15T17:39:55.142Z,13.05
2018-01-15T17:42:24.210Z,12.30
2018-01-15T17:44:52.514Z,13.62
2018-01-15T17:47:20.848Z,12.13
2018-01-15T17:49:49.923Z,12.05
2018-01-15T17:52:18.254Z,11.50
2018-01-15T17:54:47.378Z,13.02
2018-01-15T17:57:15.690Z,12.07
2018-01-15T17:59:44.038Z,11.53
2018-01-15T18:02:13.104Z,11.30
2018-01-15T18:04:41.438Z,12.50
2018-01-15T18:07:09.746Z,12.40
2018-01-15T18:09:38.095Z,12.80
2018-01-15T18:12:07.947Z,14.10
2018-01-15T18:14:37.055Z,12.05
2018-01-15T18:17:06.112Z,13.60
2018-01-15T18:19:34.415Z,11.43
2018-01-15T18:22:02.803Z,12.68
2018-01-15T18:24:31.158Z,14.40
2018-01-15T18:26:59.485Z,13.35
2018-01-15T18:29:27.821Z,12.10
2018-01-15T18:31:56.162Z,11.73
2018-01-15T18:34:24.572Z,12.68
2018-01-15T18:36:54.588Z,11.63
2018-01-15T18:39:23.095Z,13.62
2018-01-15T18:41:52.167Z,11.67
2018-01-15T18:44:20.793Z,15.27
2018-01-15T18:46:49.290Z,12.07
2018-01-15T18:49:19.136Z,13.23
2018-01-15T18:51:48.234Z,13.57
2018-01-15T18:54:17.303Z,12.73
2018-01-15T18:56:45.639Z,14.00
2018-01-15T18:59:14.748Z,12.90
2018-01-15T19:01:43.815Z,12.03
2018-01-15T19:04:12.166Z,13.48
2018-01-15T19:06:40.463Z,12.60
2018-01-15T19:09:08.774Z,11.98
2018-01-15T19:11:37.148Z,13.73
2018-01-15T19:14:05.450Z,13.48
2018-01-15T19:16:33.904Z,12.57
2018-01-15T19:19:02.955Z,11.07
2018-01-15T19:21:31.302Z,12.50
2018-01-15T19:24:00.374Z,12.82
2018-01-15T19:26:30.182Z,12.90
2018-01-15T19:28:58.519Z,13.75
2018-01-15T19:31:27.634Z,11.00
2018-01-15T19:33:55.939Z,12.60
2018-01-15T19:36:29.922Z,12.70
2018-01-15T19:39:01.597Z,12.33
2018-01-15T19:41:45.595Z,11.60
2018-01-15T19:44:25.485Z,12.57
2018-01-15T19:46:59.450Z,12.13
2018-01-15T19:49:34.178Z,12.40
2018-01-15T19:52:09.002Z,11.63
2018-01-15T19:54:42.978Z,12.63
2018-01-15T19:57:17.031Z,10.90
2018-01-15T19:59:51.022Z,13.50
2018-01-15T20:02:25.094Z,13.05
2018-01-15T20:04:59.041Z,12.30
2018-01-15T20:07:33.753Z,12.67
2018-01-15T20:10:07.784Z,13.45
2018-01-15T20:12:36.086Z,11.15
2018-01-15T20:15:04.434Z,13.93
2018-01-15T20:17:32.754Z,12.05
2018-01-15T20:20:01.094Z,10.10
2018-01-15T20:22:29.390Z,11.15
2018-01-15T20:24:57.738Z,11.65
2018-01-15T20:27:26.040Z,12.30
2018-01-15T20:29:55.116Z,11.88
2018-01-15T20:32:23.567Z,11.45
2018-01-15T20:34:51.867Z,11.87
2018-01-15T20:37:20.158Z,11.10
2018-01-15T20:39:48.494Z,12.25
2018-01-15T20:42:16.812Z,11.50
2018-01-15T20:44:45.187Z,11.73
2018-01-15T20:47:14.251Z,12.53
2018-01-15T20:49:42.605Z,11.00
2018-01-15T20:52:10.900Z,11.63
2018-01-15T20:54:39.304Z,10.95
2018-01-15T20:57:07.642Z,11.25
2018-01-15T20:59:37.443Z,11.57
2018-01-15T21:02:05.805Z,12.93
2018-01-15T21:04:34.118Z,10.95
2018-01-15T21:07:02.482Z,12.77
2018-01-15T21:09:30.850Z,10.85
2018-01-15T21:11:59.934Z,13.18
2018-01-15T21:14:29.967Z,11.60
2018-01-15T21:16:59.038Z,11.17
2018-01-15T21:19:27.346Z,11.45
2018-01-15T21:21:55.730Z,11.75
2018-01-15T21:24:24.045Z,10.48
2018-01-15T21:26:52.401Z,10.80
2018-01-15T21:29:20.709Z,9.07
2018-01-15T21:31:49.202Z,9.45
2018-01-15T21:34:17.513Z,9.85
2018-01-15T21:36:45.838Z,10.95
2018-01-15T21:39:14.172Z,9.30
2018-01-15T21:41:42.467Z,10.25
2018-01-15T21:44:12.503Z,8.02
2018-01-15T21:46:40.807Z,8.57
2018-01-15T21:49:09.875Z,11.18
2018-01-15T21:51:38.210Z,9.50
2018-01-15T21:54:07.471Z,8.57
2018-01-15T21:56:35.781Z,9.77
2018-01-15T21:59:04.069Z,9.20
2018-01-15T22:01:33.914Z,8.77
2018-01-15T22:04:03.018Z,10.35
2018-01-15T22:06:32.814Z,9.50
2018-01-15T22:09:01.159Z,11.70
2018-01-15T22:11:30.223Z,10.20
2018-01-15T22:13:58.549Z,10.18
2018-01-15T22:16:27.851Z,9.30
2018-01-15T22:18:56.935Z,9.18
2018-01-15T22:21:25.238Z,9.75
2018-01-15T22:23:53.567Z,9.35
2018-01-15T22:26:21.911Z,10.13
2018-01-15T22:28:50.241Z,11.02
2018-01-15T22:31:18.894Z,9.00
2018-01-15T22:33:48.210Z,11.10
2018-01-15T22:36:16.761Z,9.57
2018-01-15T22:38:45.319Z,7.70
2018-01-15T22:41:13.805Z,9.13
2018-01-15T22:43:42.397Z,10.40
2018-01-15T22:46:11.003Z,10.85
2018-01-15T22:48:39.749Z,10.32
2018-01-15T22:51:08.271Z,8.00
2018-01-15T22:53:37.556Z,9.65
2018-01-15T22:56:06.274Z,10.15
2018-01-15T22:58:34.780Z,7.05
2018-01-15T23:01:04.773Z,8.00
2018-01-15T23:03:34.479Z,10.27
2018-01-15T23:06:02.976Z,9.85
2018-01-15T23:08:31.331Z,8.63
2018-01-15T23:11:00.633Z,9.68
2018-01-15T23:13:29.229Z,8.75
2018-01-15T23:15:58.546Z,7.62
2018-01-15T23:18:26.936Z,10.18
2018-01-15T23:20:55.242Z,9.10
2018-01-15T23:23:24.346Z,8.77
2018-01-15T23:25:53.439Z,9.60
2018-01-15T23:28:21.738Z,7.30
2018-01-15T23:30:50.074Z,9.38
2018-01-15T23:33:18.366Z,8.68
2018-01-15T23:35:46.698Z,9.23
2018-01-15T23:38:16.507Z,8.85
2018-01-15T23:40:44.834Z,9.85
2018-01-15T23:43:14.166Z,8.18
2018-01-15T23:45:42.475Z,8.65
2018-01-15T23:48:10.771Z,7.78
2018-01-15T23:50:39.102Z,8.73
2018-01-15T23:53:08.541Z,7.60
2018-01-15T23:55:37.599Z,7.73
2018-01-15T23:58:05.930Z,7.60
